Archival Weather

Heathrow

London, United Kingdom (EGLL)

Report from: Friday, June 21, 2024 4:50 AM BST
Current time: Friday, July 19, 2024 4:46 AM BST

Current weather – Weather history – Daily summaries
Weather forecast

Temperature13.0°C (55.4°F)
Dew point10.0°C (50.0°F)
Winds 1 kts (0.5 m/s, 1.2 mph) Southwest (230°)
Visibility6.2 mi. (10 km)
Clouds Sky clear
Altimeter30.00 in.Hg (1016 mB)
Relative humidity82 %
Density altitude-157 ft. (-48 m)
Remarks Fully automated report
No clouds detected
Flight conditions Visual Meteorological Conditions
Raw dataEGLL 210350Z AUTO 23001KT 9999 NCD 13/10 Q1016
An error has occurred. This application may no longer respond until reloaded. Reload 🗙